No particular awareness of the weather is required.    There are no Weather-warnings


Meteo18 Weather Cam more information Meteo18 Weather Cam


Thunder radar more information blitzortung!


Rain radar more information rain snow radar


Visit our other weather sites:

Template documentation
and downloads

And another site



Weather Underground History page Text

Daily Summary for July 10, 2017 Units:  Both    English   Metric
« Previous Day
Next Day »
Daily Weekly Monthly Yearly Custom
  High: Low: Average:
Temperature: TemperatureC °F /  -17.8 °C 16.8 °F /  -8.4 °C 19.1 °F /  -7.2 °C
Dew Point: DewpointC °F /  -17.8 °C 15.7 °F /  -9.1 °C 17 °F /  -8.3 °C
Humidity: Humidity % 66 % 87 %
Wind Speed: WindSpeedKMH mph /  0 km/h - 7.7 mph /  12.4 km/h
Wind Gust: WindSpeedGustKMH mph /  0 km/h - -
Wind:- - WSW
Pressure: PressurehPa in /  0 hPa 1011.7 in /  34256.2 hPa -
Precipitation: 1.0 in /  25.4 mm    
Historical Graphs
 
 
Tabular Data for July 10, 2017
Time Temperature Dew Point Pressure Wind Wind Speed Wind Gust Humidity Rainfall Rate (Hourly)
TemperatureC °F /  -17.8 °C DewpointC °F /  -17.8 °C PressurehPa in /  0 hPa Calm     Humidity % HourlyPrecipMM in /  0 mm
00:02 18.5 °F /  -7.5 °C 17.8 °F /  -7.9 °C 1012.4 in /  34279.9 hPa Calm   1.6 mph /  2.6 km/h 96 % 0.0 in /  0 mm
00:07 18.4 °F /  -7.6 °C 17.8 °F /  -7.9 °C 1012.1 in /  34269.7 hPa SE 1.6 mph /  2.6 km/h   96 % 0.0 in /  0 mm
00:12 18.4 °F /  -7.6 °C 17.8 °F /  -7.9 °C 1011.7 in /  34256.2 hPa Calm   3.2 mph /  5.1 km/h 96 % 0.0 in /  0 mm
00:17 18.4 °F /  -7.6 °C 17.8 °F /  -7.9 °C 1011.7 in /  34256.2 hPa Calm   3.2 mph /  5.1 km/h 96 % 0.0 in /  0 mm
00:22 18.4 °F /  -7.6 °C 17.8 °F /  -7.9 °C 1012.1 in /  34269.7 hPa Calm   3.2 mph /  5.1 km/h 96 % 0.0 in /  0 mm
00:27 18.5 °F /  -7.5 °C 17.8 °F /  -7.9 °C 1012.1 in /  34269.7 hPa Calm   1.6 mph /  2.6 km/h 96 % 0.0 in /  0 mm
00:32 18.5 °F /  -7.5 °C 17.8 °F /  -7.9 °C 1012.4 in /  34279.9 hPa SW 1.6 mph /  2.6 km/h 1.6 mph /  2.6 km/h 96 % 0.0 in /  0 mm
00:42 18.6 °F /  -7.4 °C 17.9 °F /  -7.8 °C 1012.1 in /  34269.7 hPa South 1.6 mph /  2.6 km/h 3.2 mph /  5.1 km/h 96 % 0.0 in /  0 mm
00:47 18.6 °F /  -7.4 °C 17.9 °F /  -7.8 °C 1012.1 in /  34269.7 hPa Calm   4.8 mph /  7.7 km/h 96 % 0.0 in /  0 mm
00:57 18.6 °F /  -7.4 °C 18.1 °F /  -7.7 °C 1012.4 in /  34279.9 hPa SW 3.2 mph /  5.1 km/h 3.2 mph /  5.1 km/h 97 % 0.0 in /  0 mm
01:02 18.6 °F /  -7.4 °C 17.9 °F /  -7.8 °C 1012.4 in /  34279.9 hPa SW 8.0 mph /  12.9 km/h 8.0 mph /  12.9 km/h 96 % 0.0 in /  0 mm
01:07 18.5 °F /  -7.5 °C 17.8 °F /  -7.9 °C 1012.4 in /  34279.9 hPa SW 4.8 mph /  7.7 km/h 9.7 mph /  15.6 km/h 96 % 0.0 in /  0 mm
01:12 18.4 °F /  -7.6 °C 17.8 °F /  -7.9 °C 1012.4 in /  34279.9 hPa SSW 4.8 mph /  7.7 km/h 11.3 mph /  18.2 km/h 96 % 0.0 in /  0 mm
01:17 18.4 °F /  -7.6 °C 17.8 °F /  -7.9 °C 1012.4 in /  34279.9 hPa SW 6.4 mph /  10.3 km/h 12.9 mph /  20.8 km/h 96 % 0.0 in /  0 mm
01:22 18.3 °F /  -7.6 °C 17.7 °F /  -7.9 °C 1012.4 in /  34279.9 hPa WSW 6.4 mph /  10.3 km/h 12.9 mph /  20.8 km/h 96 % 0.0 in /  0 mm
01:27 18.3 °F /  -7.6 °C 17.7 °F /  -7.9 °C 1012.4 in /  34279.9 hPa WSW 4.8 mph /  7.7 km/h 12.9 mph /  20.8 km/h 96 % 0.0 in /  0 mm
01:32 18.3 °F /  -7.6 °C 17.7 °F /  -7.9 °C 1012.4 in /  34279.9 hPa West 3.2 mph /  5.1 km/h 11.3 mph /  18.2 km/h 96 % 0.0 in /  0 mm
01:37 18.3 °F /  -7.6 °C 17.7 °F /  -7.9 °C 1012.4 in /  34279.9 hPa WSW 3.2 mph /  5.1 km/h 11.3 mph /  18.2 km/h 96 % 0.0 in /  0 mm
01:42 18.3 °F /  -7.6 °C 17.7 °F /  -7.9 °C 1012.4 in /  34279.9 hPa WSW 6.4 mph /  10.3 km/h 9.7 mph /  15.6 km/h 96 % 0.0 in /  0 mm
01:47 18.3 °F /  -7.6 °C 17.7 °F /  -7.9 °C 1012.1 in /  34269.7 hPa West 4.8 mph /  7.7 km/h 9.7 mph /  15.6 km/h 96 % 0.0 in /  0 mm
01:52 18.3 °F /  -7.6 °C 17.7 °F /  -7.9 °C 1012.1 in /  34269.7 hPa WSW 4.8 mph /  7.7 km/h 9.7 mph /  15.6 km/h 96 % 0.0 in /  0 mm
01:57 18.3 °F /  -7.6 °C 17.7 °F /  -7.9 °C 1012.1 in /  34269.7 hPa WNW 9.7 mph /  15.6 km/h 11.3 mph /  18.2 km/h 96 % 0.0 in /  0 mm
02:02 18.3 °F /  -7.6 °C 17.7 °F /  -7.9 °C 1012.1 in /  34269.7 hPa West 3.2 mph /  5.1 km/h 12.9 mph /  20.8 km/h 96 % 0.0 in /  0 mm
02:07 18.4 °F /  -7.6 °C 17.8 °F /  -7.9 °C 1012.1 in /  34269.7 hPa West 4.8 mph /  7.7 km/h 12.9 mph /  20.8 km/h 96 % 0.0 in /  0 mm
02:12 18.4 °F /  -7.6 °C 17.8 °F /  -7.9 °C 1012.1 in /  34269.7 hPa West 4.8 mph /  7.7 km/h 12.9 mph /  20.8 km/h 96 % 0.0 in /  0 mm
02:17 18.4 °F /  -7.6 °C 17.8 °F /  -7.9 °C 1012.1 in /  34269.7 hPa WSW 4.8 mph /  7.7 km/h 12.9 mph /  20.8 km/h 96 % 0.0 in /  0 mm
02:22 18.4 °F /  -7.6 °C 17.8 °F /  -7.9 °C 1012.1 in /  34269.7 hPa WSW 6.4 mph /  10.3 km/h 9.7 mph /  15.6 km/h 96 % 0.0 in /  0 mm
02:27 18.3 °F /  -7.6 °C 17.7 °F /  -7.9 °C 1012.1 in /  34269.7 hPa WSW 4.8 mph /  7.7 km/h 9.7 mph /  15.6 km/h 96 % 0.0 in /  0 mm
02:32 18.3 °F /  -7.6 °C 17.7 °F /  -7.9 °C 1012.1 in /  34269.7 hPa WSW 6.4 mph /  10.3 km/h 8.0 mph /  12.9 km/h 96 % 0.0 in /  0 mm
02:42 18.3 °F /  -7.6 °C 17.7 °F /  -7.9 °C 1012.1 in /  34269.7 hPa West 3.2 mph /  5.1 km/h 9.7 mph /  15.6 km/h 96 % 0.0 in /  0 mm
02:47 18.3 °F /  -7.6 °C 17.7 °F /  -7.9 °C 1012.1 in /  34269.7 hPa WSW 12.9 mph /  20.8 km/h 12.9 mph /  20.8 km/h 96 % 0.0 in /  0 mm
02:52 18.3 °F /  -7.6 °C 17.7 °F /  -7.9 °C 1012.1 in /  34269.7 hPa WSW 3.2 mph /  5.1 km/h 12.9 mph /  20.8 km/h 96 % 0.0 in /  0 mm
02:57 18.3 °F /  -7.6 °C 17.7 °F /  -7.9 °C 1012.1 in /  34269.7 hPa WSW 1.6 mph /  2.6 km/h 12.9 mph /  20.8 km/h 96 % 0.0 in /  0 mm
03:02 18.3 °F /  -7.6 °C 17.7 °F /  -7.9 °C 1011.7 in /  34256.2 hPa West 3.2 mph /  5.1 km/h 12.9 mph /  20.8 km/h 96 % 0.0 in /  0 mm
03:07 18.3 °F /  -7.6 °C 17.7 °F /  -7.9 °C 1011.7 in /  34256.2 hPa SW 3.2 mph /  5.1 km/h 8.0 mph /  12.9 km/h 96 % 0.0 in /  0 mm
03:12 18.3 °F /  -7.6 °C 17.7 °F /  -7.9 °C 1011.7 in /  34256.2 hPa SW 6.4 mph /  10.3 km/h 11.3 mph /  18.2 km/h 96 % 0.0 in /  0 mm
03:17 18.3 °F /  -7.6 °C 17.7 °F /  -7.9 °C 1011.7 in /  34256.2 hPa SSW 3.2 mph /  5.1 km/h 11.3 mph /  18.2 km/h 96 % 0.0 in /  0 mm
03:22 18.3 °F /  -7.6 °C 17.7 °F /  -7.9 °C 1011.7 in /  34256.2 hPa SW 1.6 mph /  2.6 km/h 11.3 mph /  18.2 km/h 96 % 0.0 in /  0 mm
03:27 18.3 °F /  -7.6 °C 17.7 °F /  -7.9 °C 1011.7 in /  34256.2 hPa SW 4.8 mph /  7.7 km/h 6.4 mph /  10.3 km/h 96 % 0.0 in /  0 mm
03:32 18.3 °F /  -7.6 °C 17.7 °F /  -7.9 °C 1011.7 in /  34256.2 hPa WSW 3.2 mph /  5.1 km/h 8.0 mph /  12.9 km/h 96 % 0.0 in /  0 mm
03:37 18.3 °F /  -7.6 °C 17.7 °F /  -7.9 °C 1011.7 in /  34256.2 hPa WSW 4.8 mph /  7.7 km/h 8.0 mph /  12.9 km/h 96 % 0.0 in /  0 mm
03:42 18.3 °F /  -7.6 °C 17.8 °F /  -7.9 °C 1011.7 in /  34256.2 hPa South 4.8 mph /  7.7 km/h 8.0 mph /  12.9 km/h 97 % 0.0 in /  0 mm
03:47 18.4 °F /  -7.6 °C 17.9 °F /  -7.8 °C 1012.1 in /  34269.7 hPa SW 8.0 mph /  12.9 km/h 14.5 mph /  23.3 km/h 97 % 0.0 in /  0 mm
03:52 18.3 °F /  -7.6 °C 17.7 °F /  -7.9 °C 1012.1 in /  34269.7 hPa WSW 9.7 mph /  15.6 km/h 19.3 mph /  31.1 km/h 96 % 0.0 in /  0 mm
03:57 18.3 °F /  -7.6 °C 17.7 °F /  -7.9 °C 1012.1 in /  34269.7 hPa SW 11.3 mph /  18.2 km/h 19.3 mph /  31.1 km/h 96 % 0.0 in /  0 mm
04:02 18.2 °F /  -7.7 °C 17.6 °F /  -8 °C 1012.4 in /  34279.9 hPa West 12.9 mph /  20.8 km/h 19.3 mph /  31.1 km/h 96 % 0.0 in /  0 mm
04:12 18.0 °F /  -7.8 °C 17.4 °F /  -8.1 °C 1012.4 in /  34279.9 hPa West 16.1 mph /  25.9 km/h 24.1 mph /  38.8 km/h 96 % 0.0 in /  0 mm
04:17 17.9 °F /  -7.8 °C 17.3 °F /  -8.2 °C 1012.4 in /  34279.9 hPa WSW 9.7 mph /  15.6 km/h 22.5 mph /  36.2 km/h 96 % 0.0 in /  0 mm
04:22 17.9 °F /  -7.8 °C 17.1 °F /  -8.3 °C 1012.4 in /  34279.9 hPa WNW 6.4 mph /  10.3 km/h 22.5 mph /  36.2 km/h 95 % 0.0 in /  0 mm
04:27 17.9 °F /  -7.8 °C 17.1 °F /  -8.3 °C 1012.4 in /  34279.9 hPa West 12.9 mph /  20.8 km/h 22.5 mph /  36.2 km/h 95 % 0.0 in /  0 mm
04:37 17.9 °F /  -7.8 °C 17.1 °F /  -8.3 °C 1012.1 in /  34269.7 hPa SW 9.7 mph /  15.6 km/h 19.3 mph /  31.1 km/h 95 % 0.0 in /  0 mm
04:42 17.8 °F /  -7.9 °C 16.8 °F /  -8.4 °C 1012.1 in /  34269.7 hPa WSW 4.8 mph /  7.7 km/h 22.5 mph /  36.2 km/h 94 % 0.0 in /  0 mm
04:47 17.8 °F /  -7.9 °C 16.8 °F /  -8.4 °C 1012.1 in /  34269.7 hPa West 8.0 mph /  12.9 km/h 22.5 mph /  36.2 km/h 94 % 0.0 in /  0 mm
04:52 17.7 °F /  -7.9 °C 16.7 °F /  -8.5 °C 1012.1 in /  34269.7 hPa WSW 6.4 mph /  10.3 km/h 22.5 mph /  36.2 km/h 94 % 0.0 in /  0 mm
04:57 17.8 °F /  -7.9 °C 17.0 °F /  -8.3 °C 1012.1 in /  34269.7 hPa West 14.5 mph /  23.3 km/h 20.9 mph /  33.6 km/h 95 % 0.0 in /  0 mm
05:02 17.8 °F /  -7.9 °C 16.8 °F /  -8.4 °C 1012.1 in /  34269.7 hPa West 8.0 mph /  12.9 km/h 20.9 mph /  33.6 km/h 94 % 0.0 in /  0 mm
05:07 17.8 °F /  -7.9 °C 17.0 °F /  -8.3 °C 1012.1 in /  34269.7 hPa West 16.1 mph /  25.9 km/h 22.5 mph /  36.2 km/h 95 % 0.0 in /  0 mm
05:12 17.8 °F /  -7.9 °C 17.0 °F /  -8.3 °C 1012.4 in /  34279.9 hPa West 8.0 mph /  12.9 km/h 25.7 mph /  41.4 km/h 95 % 0.0 in /  0 mm
05:17 17.8 °F /  -7.9 °C 17.0 °F /  -8.3 °C 1012.4 in /  34279.9 hPa WSW 16.1 mph /  25.9 km/h 25.7 mph /  41.4 km/h 95 % 0.0 in /  0 mm
05:22 17.8 °F /  -7.9 °C 17.0 °F /  -8.3 °C 1012.8 in /  34293.4 hPa SW 9.7 mph /  15.6 km/h 25.7 mph /  41.4 km/h 95 % 0.0 in /  0 mm
05:32 17.8 °F /  -7.9 °C 17.0 °F /  -8.3 °C 1012.8 in /  34293.4 hPa West 8.0 mph /  12.9 km/h 24.1 mph /  38.8 km/h 95 % 0.0 in /  0 mm
05:42 17.8 °F /  -7.9 °C 17.2 °F /  -8.2 °C 1012.8 in /  34293.4 hPa SSW 9.7 mph /  15.6 km/h 20.9 mph /  33.6 km/h 96 % 0.0 in /  0 mm
05:47 17.9 °F /  -7.8 °C 17.3 °F /  -8.2 °C 1012.8 in /  34293.4 hPa SW 8.0 mph /  12.9 km/h 20.9 mph /  33.6 km/h 96 % 0.0 in /  0 mm
05:52 17.9 °F /  -7.8 °C 17.3 °F /  -8.2 °C 1012.8 in /  34293.4 hPa WSW 17.7 mph /  28.5 km/h 20.9 mph /  33.6 km/h 96 % 0.0 in /  0 mm
05:57 17.9 °F /  -7.8 °C 17.3 °F /  -8.2 °C 1012.8 in /  34293.4 hPa West 6.4 mph /  10.3 km/h 22.5 mph /  36.2 km/h 96 % 0.0 in /  0 mm
06:02 18.0 °F /  -7.8 °C 17.5 °F /  -8.1 °C 1012.8 in /  34293.4 hPa West 11.3 mph /  18.2 km/h 22.5 mph /  36.2 km/h 97 % 0.0 in /  0 mm
06:12 18.1 °F /  -7.7 °C 17.6 °F /  -8 °C 1012.8 in /  34293.4 hPa West 14.5 mph /  23.3 km/h 24.1 mph /  38.8 km/h 97 % 0.0 in /  0 mm
06:17 18.1 °F /  -7.7 °C 17.6 °F /  -8 °C 1012.8 in /  34293.4 hPa West 9.7 mph /  15.6 km/h 24.1 mph /  38.8 km/h 97 % 0.0 in /  0 mm
06:22 18.2 °F /  -7.7 °C 17.6 °F /  -8 °C 1012.8 in /  34293.4 hPa NW 12.9 mph /  20.8 km/h 24.1 mph /  38.8 km/h 96 % 0.0 in /  0 mm
06:32 18.2 °F /  -7.7 °C 17.4 °F /  -8.1 °C 1012.8 in /  34293.4 hPa West 8.0 mph /  12.9 km/h 22.5 mph /  36.2 km/h 95 % 0.3 in /  7.62 mm
06:37 18.2 °F /  -7.7 °C 17.2 °F /  -8.2 °C 1012.8 in /  34293.4 hPa West 6.4 mph /  10.3 km/h 22.5 mph /  36.2 km/h 94 % 0.3 in /  7.62 mm
06:42 18.2 °F /  -7.7 °C 17.0 °F /  -8.3 °C 1012.8 in /  34293.4 hPa West 8.0 mph /  12.9 km/h 22.5 mph /  36.2 km/h 93 % 0.3 in /  7.62 mm
06:47 18.1 °F /  -7.7 °C 16.8 °F /  -8.4 °C 1012.4 in /  34279.9 hPa WNW 3.2 mph /  5.1 km/h 20.9 mph /  33.6 km/h 92 % 0.3 in /  7.62 mm
06:52 18.0 °F /  -7.8 °C 16.7 °F /  -8.5 °C 1012.4 in /  34279.9 hPa WNW 11.3 mph /  18.2 km/h 20.9 mph /  33.6 km/h 92 % 0.3 in /  7.62 mm
07:02 17.7 °F /  -7.9 °C 16.2 °F /  -8.8 °C 1012.1 in /  34269.7 hPa North 8.0 mph /  12.9 km/h 16.1 mph /  25.9 km/h 91 % 0.3 in /  7.62 mm
07:12 17.5 °F /  -8.1 °C 16.2 °F /  -8.8 °C 1012.1 in /  34269.7 hPa WNW 4.8 mph /  7.7 km/h 22.5 mph /  36.2 km/h 92 % 0.3 in /  7.62 mm
07:17 17.4 °F /  -8.1 °C 16.1 °F /  -8.8 °C 1012.1 in /  34269.7 hPa WNW 4.8 mph /  7.7 km/h 12.9 mph /  20.8 km/h 92 % 0.3 in /  7.62 mm
07:22 17.4 °F /  -8.1 °C 16.1 °F /  -8.8 °C 1012.1 in /  34269.7 hPa West 3.2 mph /  5.1 km/h 12.9 mph /  20.8 km/h 92 % 0.3 in /  7.62 mm
07:32 17.4 °F /  -8.1 °C 15.9 °F /  -8.9 °C 1012.1 in /  34269.7 hPa WNW 4.8 mph /  7.7 km/h 12.9 mph /  20.8 km/h 91 % 0.0 in /  0 mm
07:37 17.4 °F /  -8.1 °C 15.9 °F /  -8.9 °C 1012.4 in /  34279.9 hPa Calm   11.3 mph /  18.2 km/h 91 % 0.0 in /  0 mm
07:42 17.5 °F /  -8.1 °C 16.0 °F /  -8.9 °C 1012.4 in /  34279.9 hPa West 4.8 mph /  7.7 km/h 8.0 mph /  12.9 km/h 91 % 0.0 in /  0 mm
07:47 17.5 °F /  -8.1 °C 16.0 °F /  -8.9 °C 1012.4 in /  34279.9 hPa Calm   6.4 mph /  10.3 km/h 91 % 0.0 in /  0 mm
07:52 17.5 °F /  -8.1 °C 16.0 °F /  -8.9 °C 1012.4 in /  34279.9 hPa Calm   6.4 mph /  10.3 km/h 91 % 0.0 in /  0 mm
08:02 17.5 °F /  -8.1 °C 16.2 °F /  -8.8 °C 1012.8 in /  34293.4 hPa SSW 3.2 mph /  5.1 km/h 4.8 mph /  7.7 km/h 92 % 0.0 in /  0 mm
08:12 17.6 °F /  -8 °C 16.3 °F /  -8.7 °C 1012.8 in /  34293.4 hPa SSE 4.8 mph /  7.7 km/h 9.7 mph /  15.6 km/h 92 % 0.0 in /  0 mm
08:17 17.7 °F /  -7.9 °C 16.6 °F /  -8.6 °C 1012.8 in /  34293.4 hPa SSW 6.4 mph /  10.3 km/h 11.3 mph /  18.2 km/h 93 % 0.0 in /  0 mm
08:22 17.8 °F /  -7.9 °C 16.5 °F /  -8.6 °C 1013.1 in /  34303.6 hPa SW 11.3 mph /  18.2 km/h 11.3 mph /  18.2 km/h 92 % 0.0 in /  0 mm
08:27 17.9 °F /  -7.8 °C 16.8 °F /  -8.4 °C 1013.1 in /  34303.6 hPa SW 8.0 mph /  12.9 km/h 19.3 mph /  31.1 km/h 93 % 0.0 in /  0 mm
08:32 17.9 °F /  -7.8 °C 16.6 °F /  -8.6 °C 1013.1 in /  34303.6 hPa SSW 11.3 mph /  18.2 km/h 19.3 mph /  31.1 km/h 92 % 0.0 in /  0 mm
08:42 17.8 °F /  -7.9 °C 16.7 °F /  -8.5 °C 1013.1 in /  34303.6 hPa WSW 9.7 mph /  15.6 km/h 19.3 mph /  31.1 km/h 93 % 0.0 in /  0 mm
08:52 17.6 °F /  -8 °C 16.5 °F /  -8.6 °C 1013.4 in /  34313.7 hPa SSW 16.1 mph /  25.9 km/h 19.3 mph /  31.1 km/h 93 % 0.0 in /  0 mm
08:57 17.6 °F /  -8 °C 16.5 °F /  -8.6 °C 1013.4 in /  34313.7 hPa SW 9.7 mph /  15.6 km/h 20.9 mph /  33.6 km/h 93 % 0.0 in /  0 mm
09:02 17.6 °F /  -8 °C 16.3 °F /  -8.7 °C 1013.4 in /  34313.7 hPa SW 8.0 mph /  12.9 km/h 20.9 mph /  33.6 km/h 92 % 0.0 in /  0 mm
09:07 17.7 °F /  -7.9 °C 16.4 °F /  -8.7 °C 1013.4 in /  34313.7 hPa WSW 4.8 mph /  7.7 km/h 22.5 mph /  36.2 km/h 92 % 0.0 in /  0 mm
09:12 17.8 °F /  -7.9 °C 16.5 °F /  -8.6 °C 1013.4 in /  34313.7 hPa WSW 6.4 mph /  10.3 km/h 22.5 mph /  36.2 km/h 92 % 0.0 in /  0 mm
09:17 17.9 °F /  -7.8 °C 16.4 °F /  -8.7 °C 1013.4 in /  34313.7 hPa West 8.0 mph /  12.9 km/h 22.5 mph /  36.2 km/h 91 % 0.0 in /  0 mm
09:22 18.1 °F /  -7.7 °C 16.6 °F /  -8.6 °C 1013.4 in /  34313.7 hPa West 4.8 mph /  7.7 km/h 22.5 mph /  36.2 km/h 91 % 0.0 in /  0 mm
09:27 18.3 °F /  -7.6 °C 16.8 °F /  -8.4 °C 1013.4 in /  34313.7 hPa WSW 9.7 mph /  15.6 km/h 22.5 mph /  36.2 km/h 91 % 0.0 in /  0 mm
09:32 18.3 °F /  -7.6 °C 16.8 °F /  -8.4 °C 1013.4 in /  34313.7 hPa WSW 1.6 mph /  2.6 km/h 22.5 mph /  36.2 km/h 91 % 0.0 in /  0 mm
09:37 18.7 °F /  -7.4 °C 17.0 °F /  -8.3 °C 1013.4 in /  34313.7 hPa SSW 4.8 mph /  7.7 km/h 17.7 mph /  28.5 km/h 90 % 0.0 in /  0 mm
09:42 19.0 °F /  -7.2 °C 17.1 °F /  -8.3 °C 1013.4 in /  34313.7 hPa South 12.9 mph /  20.8 km/h 17.7 mph /  28.5 km/h 89 % 0.0 in /  0 mm
09:47 19.2 °F /  -7.1 °C 17.0 °F /  -8.3 °C 1013.4 in /  34313.7 hPa WSW 6.4 mph /  10.3 km/h 17.7 mph /  28.5 km/h 87 % 0.0 in /  0 mm
09:52 19.3 °F /  -7.1 °C 17.3 °F /  -8.2 °C 1013.4 in /  34313.7 hPa WSW 6.4 mph /  10.3 km/h 17.7 mph /  28.5 km/h 88 % 0.0 in /  0 mm
09:57 19.3 °F /  -7.1 °C 17.1 °F /  -8.3 °C 1013.4 in /  34313.7 hPa SW 19.3 mph /  31.1 km/h 24.1 mph /  38.8 km/h 87 % 0.0 in /  0 mm
10:02 19.3 °F /  -7.1 °C 17.1 °F /  -8.3 °C 1013.8 in /  34327.3 hPa WSW 4.8 mph /  7.7 km/h 24.1 mph /  38.8 km/h 87 % 0.0 in /  0 mm
10:12 19.4 °F /  -7 °C 17.2 °F /  -8.2 °C 1013.4 in /  34313.7 hPa West 3.2 mph /  5.1 km/h 24.1 mph /  38.8 km/h 87 % 0.0 in /  0 mm
10:17 19.4 °F /  -7 °C 17.2 °F /  -8.2 °C 1013.4 in /  34313.7 hPa WSW 4.8 mph /  7.7 km/h 20.9 mph /  33.6 km/h 87 % 0.0 in /  0 mm
10:22 19.3 °F /  -7.1 °C 17.1 °F /  -8.3 °C 1013.8 in /  34327.3 hPa SW 3.2 mph /  5.1 km/h 20.9 mph /  33.6 km/h 87 % 0.0 in /  0 mm
10:32 19.2 °F /  -7.1 °C 17.0 °F /  -8.3 °C 1013.8 in /  34327.3 hPa WSW 11.3 mph /  18.2 km/h 17.7 mph /  28.5 km/h 87 % 0.0 in /  0 mm
10:37 19.3 °F /  -7.1 °C 16.9 °F /  -8.4 °C 1013.8 in /  34327.3 hPa SW 4.8 mph /  7.7 km/h 17.7 mph /  28.5 km/h 86 % 0.0 in /  0 mm
10:42 19.3 °F /  -7.1 °C 16.9 °F /  -8.4 °C 1013.8 in /  34327.3 hPa WSW 6.4 mph /  10.3 km/h 17.7 mph /  28.5 km/h 86 % 0.0 in /  0 mm
10:47 19.6 °F /  -6.9 °C 17.2 °F /  -8.2 °C 1013.8 in /  34327.3 hPa WSW 6.4 mph /  10.3 km/h 17.7 mph /  28.5 km/h 86 % 0.0 in /  0 mm
10:52 19.8 °F /  -6.8 °C 17.2 °F /  -8.2 °C 1013.8 in /  34327.3 hPa SSW 4.8 mph /  7.7 km/h 17.7 mph /  28.5 km/h 85 % 0.0 in /  0 mm
10:57 19.6 °F /  -6.9 °C 16.8 °F /  -8.4 °C 1013.8 in /  34327.3 hPa West 9.7 mph /  15.6 km/h 24.1 mph /  38.8 km/h 84 % 0.0 in /  0 mm
11:02 19.6 °F /  -6.9 °C 17.2 °F /  -8.2 °C 1013.8 in /  34327.3 hPa WSW 4.8 mph /  7.7 km/h 24.1 mph /  38.8 km/h 86 % 0.0 in /  0 mm
11:07 19.6 °F /  -6.9 °C 17.2 °F /  -8.2 °C 1013.8 in /  34327.3 hPa SW 4.8 mph /  7.7 km/h 24.1 mph /  38.8 km/h 86 % 0.0 in /  0 mm
11:12 19.7 °F /  -6.8 °C 17.3 °F /  -8.2 °C 1013.4 in /  34313.7 hPa West 3.2 mph /  5.1 km/h 24.1 mph /  38.8 km/h 86 % 0.0 in /  0 mm
11:17 19.8 °F /  -6.8 °C 17.2 °F /  -8.2 °C 1013.4 in /  34313.7 hPa SSW 6.4 mph /  10.3 km/h 16.1 mph /  25.9 km/h 85 % 0.0 in /  0 mm
11:22 20.1 °F /  -6.6 °C 17.5 °F /  -8.1 °C 1013.4 in /  34313.7 hPa SW 11.3 mph /  18.2 km/h 16.1 mph /  25.9 km/h 85 % 0.0 in /  0 mm
11:27 20.2 °F /  -6.6 °C 17.6 °F /  -8 °C 1013.8 in /  34327.3 hPa West 8.0 mph /  12.9 km/h 22.5 mph /  36.2 km/h 85 % 0.0 in /  0 mm
11:32 20.2 °F /  -6.6 °C 17.4 °F /  -8.1 °C 1013.8 in /  34327.3 hPa West 8.0 mph /  12.9 km/h 22.5 mph /  36.2 km/h 84 % 0.0 in /  0 mm
11:37 20.4 °F /  -6.4 °C 17.8 °F /  -7.9 °C 1013.4 in /  34313.7 hPa SW 9.7 mph /  15.6 km/h 24.1 mph /  38.8 km/h 85 % 0.0 in /  0 mm
11:42 20.7 °F /  -6.3 °C 18.1 °F /  -7.7 °C 1013.4 in /  34313.7 hPa SW 11.3 mph /  18.2 km/h 24.1 mph /  38.8 km/h 85 % 0.0 in /  0 mm
11:52 20.7 °F /  -6.3 °C 17.7 °F /  -7.9 °C 1013.8 in /  34327.3 hPa South 11.3 mph /  18.2 km/h 30.6 mph /  49.2 km/h 83 % 0.0 in /  0 mm
11:57 20.7 °F /  -6.3 °C 17.7 °F /  -7.9 °C 1013.8 in /  34327.3 hPa SW 17.7 mph /  28.5 km/h 30.6 mph /  49.2 km/h 83 % 0.0 in /  0 mm
12:02 20.7 °F /  -6.3 °C 17.7 °F /  -7.9 °C 1013.8 in /  34327.3 hPa WSW 14.5 mph /  23.3 km/h 22.5 mph /  36.2 km/h 83 % 0.0 in /  0 mm
12:07 20.7 °F /  -6.3 °C 17.5 °F /  -8.1 °C 1013.8 in /  34327.3 hPa SW 17.7 mph /  28.5 km/h 25.7 mph /  41.4 km/h 82 % 0.0 in /  0 mm
12:12 20.7 °F /  -6.3 °C 17.5 °F /  -8.1 °C 1013.8 in /  34327.3 hPa SSW 14.5 mph /  23.3 km/h 25.7 mph /  41.4 km/h 82 % 0.0 in /  0 mm
12:17 20.7 °F /  -6.3 °C 17.3 °F /  -8.2 °C 1013.8 in /  34327.3 hPa WSW 20.9 mph /  33.6 km/h 24.1 mph /  38.8 km/h 81 % 0.0 in /  0 mm
12:22 20.8 °F /  -6.2 °C 17.6 °F /  -8 °C 1013.8 in /  34327.3 hPa SW 4.8 mph /  7.7 km/h 24.1 mph /  38.8 km/h 82 % 0.0 in /  0 mm
12:32 20.8 °F /  -6.2 °C 17.0 °F /  -8.3 °C 1014.1 in /  34337.4 hPa SW 16.1 mph /  25.9 km/h 27.4 mph /  44.1 km/h 79 % 0.0 in /  0 mm
12:42 20.7 °F /  -6.3 °C 16.9 °F /  -8.4 °C 1014.1 in /  34337.4 hPa WSW 11.3 mph /  18.2 km/h 25.7 mph /  41.4 km/h 79 % 0.0 in /  0 mm
12:47 21.0 °F /  -6.1 °C 17.6 °F /  -8 °C 1013.8 in /  34327.3 hPa SW 11.3 mph /  18.2 km/h 20.9 mph /  33.6 km/h 81 % 0.0 in /  0 mm
12:52 21.5 °F /  -5.8 °C 17.1 °F /  -8.3 °C 1013.8 in /  34327.3 hPa West 6.4 mph /  10.3 km/h 19.3 mph /  31.1 km/h 76 % 0.0 in /  0 mm
12:57 21.4 °F /  -5.9 °C 17.2 °F /  -8.2 °C 1013.8 in /  34327.3 hPa SW 8.0 mph /  12.9 km/h 22.5 mph /  36.2 km/h 77 % 0.0 in /  0 mm
13:02 21.3 °F /  -5.9 °C 16.9 °F /  -8.4 °C 1013.8 in /  34327.3 hPa WSW 14.5 mph /  23.3 km/h 22.5 mph /  36.2 km/h 76 % 0.0 in /  0 mm
13:07 21.4 °F /  -5.9 °C 17.0 °F /  -8.3 °C 1013.8 in /  34327.3 hPa SW 17.7 mph /  28.5 km/h 20.9 mph /  33.6 km/h 76 % 0.0 in /  0 mm
13:12 21.6 °F /  -5.8 °C 17.4 °F /  -8.1 °C 1013.8 in /  34327.3 hPa SSW 11.3 mph /  18.2 km/h 22.5 mph /  36.2 km/h 77 % 0.0 in /  0 mm
13:17 21.6 °F /  -5.8 °C 16.8 °F /  -8.4 °C 1013.8 in /  34327.3 hPa SW 12.9 mph /  20.8 km/h 24.1 mph /  38.8 km/h 74 % 0.0 in /  0 mm
13:22 21.9 °F /  -5.6 °C 17.5 °F /  -8.1 °C 1013.4 in /  34313.7 hPa SW 16.1 mph /  25.9 km/h 25.7 mph /  41.4 km/h 76 % 0.0 in /  0 mm
13:27 21.8 °F /  -5.7 °C 16.7 °F /  -8.5 °C 1013.4 in /  34313.7 hPa WSW 9.7 mph /  15.6 km/h 25.7 mph /  41.4 km/h 73 % 0.0 in /  0 mm
13:32 21.9 °F /  -5.6 °C 17.1 °F /  -8.3 °C 1013.4 in /  34313.7 hPa West 11.3 mph /  18.2 km/h 25.7 mph /  41.4 km/h 74 % 0.0 in /  0 mm
13:37 21.8 °F /  -5.7 °C 16.7 °F /  -8.5 °C 1013.4 in /  34313.7 hPa West 20.9 mph /  33.6 km/h 24.1 mph /  38.8 km/h 73 % 0.0 in /  0 mm
13:42 22.0 °F /  -5.6 °C 17.4 °F /  -8.1 °C 1013.4 in /  34313.7 hPa WSW 8.0 mph /  12.9 km/h 24.1 mph /  38.8 km/h 75 % 0.0 in /  0 mm
13:47 22.1 °F /  -5.5 °C 17.2 °F /  -8.2 °C 1013.1 in /  34303.6 hPa SW 20.9 mph /  33.6 km/h 24.1 mph /  38.8 km/h 74 % 0.0 in /  0 mm
13:52 22.2 °F /  -5.4 °C 17.3 °F /  -8.2 °C 1013.4 in /  34313.7 hPa SSW 4.8 mph /  7.7 km/h 22.5 mph /  36.2 km/h 74 % 0.0 in /  0 mm
13:57 22.4 °F /  -5.3 °C 17.5 °F /  -8.1 °C 1013.1 in /  34303.6 hPa SSE 4.8 mph /  7.7 km/h 22.5 mph /  36.2 km/h 74 % 0.0 in /  0 mm
14:02 22.6 °F /  -5.2 °C 17.5 °F /  -8.1 °C 1013.1 in /  34303.6 hPa West 16.1 mph /  25.9 km/h 20.9 mph /  33.6 km/h 73 % 0.0 in /  0 mm
14:07 22.6 °F /  -5.2 °C 17.5 °F /  -8.1 °C 1013.1 in /  34303.6 hPa WSW 20.9 mph /  33.6 km/h 20.9 mph /  33.6 km/h 73 % 0.0 in /  0 mm
14:12 22.2 °F /  -5.4 °C 16.9 °F /  -8.4 °C 1013.1 in /  34303.6 hPa West 22.5 mph /  36.2 km/h 32.2 mph /  51.8 km/h 72 % 0.0 in /  0 mm
14:17 22.1 °F /  -5.5 °C 17.0 °F /  -8.3 °C 1013.1 in /  34303.6 hPa WSW 8.0 mph /  12.9 km/h 32.2 mph /  51.8 km/h 73 % 0.0 in /  0 mm
14:22 22.1 °F /  -5.5 °C 17.5 °F /  -8.1 °C 1013.1 in /  34303.6 hPa West 11.3 mph /  18.2 km/h 32.2 mph /  51.8 km/h 75 % 0.0 in /  0 mm
14:27 22.2 °F /  -5.4 °C 17.3 °F /  -8.2 °C 1013.1 in /  34303.6 hPa West 4.8 mph /  7.7 km/h 29.0 mph /  46.7 km/h 74 % 0.0 in /  0 mm
14:32 21.9 °F /  -5.6 °C 17.1 °F /  -8.3 °C 1013.1 in /  34303.6 hPa SW 19.3 mph /  31.1 km/h 29.0 mph /  46.7 km/h 74 % 0.0 in /  0 mm
14:37 21.6 °F /  -5.8 °C 17.0 °F /  -8.3 °C 1013.4 in /  34313.7 hPa West 16.1 mph /  25.9 km/h 29.0 mph /  46.7 km/h 75 % 0.0 in /  0 mm
14:42 21.6 °F /  -5.8 °C 16.8 °F /  -8.4 °C 1013.1 in /  34303.6 hPa WNW 17.7 mph /  28.5 km/h 29.0 mph /  46.7 km/h 74 % 0.0 in /  0 mm
14:47 21.5 °F /  -5.8 °C 16.7 °F /  -8.5 °C 1013.1 in /  34303.6 hPa West 12.9 mph /  20.8 km/h 29.0 mph /  46.7 km/h 74 % 0.0 in /  0 mm
14:52 21.6 °F /  -5.8 °C 17.0 °F /  -8.3 °C 1013.1 in /  34303.6 hPa SW 11.3 mph /  18.2 km/h 24.1 mph /  38.8 km/h 75 % 0.0 in /  0 mm
14:57 21.8 °F /  -5.7 °C 17.0 °F /  -8.3 °C 1013.4 in /  34313.7 hPa SW 12.9 mph /  20.8 km/h 22.5 mph /  36.2 km/h 74 % 0.0 in /  0 mm
15:02 21.7 °F /  -5.7 °C 17.1 °F /  -8.3 °C 1013.4 in /  34313.7 hPa WSW 17.7 mph /  28.5 km/h 22.5 mph /  36.2 km/h 75 % 0.0 in /  0 mm
15:12 21.5 °F /  -5.8 °C 16.7 °F /  -8.5 °C 1013.4 in /  34313.7 hPa WSW 12.9 mph /  20.8 km/h 22.5 mph /  36.2 km/h 74 % 0.0 in /  0 mm
15:17 21.6 °F /  -5.8 °C 17.0 °F /  -8.3 °C 1013.1 in /  34303.6 hPa SW 20.9 mph /  33.6 km/h 25.7 mph /  41.4 km/h 75 % 0.0 in /  0 mm
15:22 21.6 °F /  -5.8 °C 17.2 °F /  -8.2 °C 1012.8 in /  34293.4 hPa SW 19.3 mph /  31.1 km/h 25.7 mph /  41.4 km/h 76 % 0.0 in /  0 mm
15:27 21.9 °F /  -5.6 °C 17.3 °F /  -8.2 °C 1012.8 in /  34293.4 hPa SW 14.5 mph /  23.3 km/h 25.7 mph /  41.4 km/h 75 % 0.0 in /  0 mm
15:32 22.3 °F /  -5.4 °C 16.8 °F /  -8.4 °C 1012.8 in /  34293.4 hPa West 9.7 mph /  15.6 km/h 24.1 mph /  38.8 km/h 71 % 0.0 in /  0 mm
15:42 22.8 °F /  -5.1 °C 16.6 °F /  -8.6 °C 1013.1 in /  34303.6 hPa WNW 8.0 mph /  12.9 km/h 27.4 mph /  44.1 km/h 68 % 0.0 in /  0 mm
15:47 22.8 °F /  -5.1 °C 16.8 °F /  -8.4 °C 1013.1 in /  34303.6 hPa WSW 16.1 mph /  25.9 km/h 27.4 mph /  44.1 km/h 69 % 0.0 in /  0 mm
15:52 23.1 °F /  -4.9 °C 16.6 °F /  -8.6 °C 1012.8 in /  34293.4 hPa WSW 12.9 mph /  20.8 km/h 29.0 mph /  46.7 km/h 67 % 0.0 in /  0 mm
15:57 23.1 °F /  -4.9 °C 16.9 °F /  -8.4 °C 1012.8 in /  34293.4 hPa SW 22.5 mph /  36.2 km/h 29.0 mph /  46.7 km/h 68 % 0.0 in /  0 mm
16:02 22.9 °F /  -5.1 °C 16.7 °F /  -8.5 °C 1012.8 in /  34293.4 hPa WSW 8.0 mph /  12.9 km/h 29.0 mph /  46.7 km/h 68 % 0.0 in /  0 mm
16:07 22.9 °F /  -5.1 °C 16.2 °F /  -8.8 °C 1012.8 in /  34293.4 hPa West 9.7 mph /  15.6 km/h 29.0 mph /  46.7 km/h 66 % 0.0 in /  0 mm
16:12 22.7 °F /  -5.2 °C 16.7 °F /  -8.5 °C 1012.8 in /  34293.4 hPa WSW 8.0 mph /  12.9 km/h 29.0 mph /  46.7 km/h 69 % 0.0 in /  0 mm
16:17 22.5 °F /  -5.3 °C 17.0 °F /  -8.3 °C 1012.8 in /  34293.4 hPa WSW 12.9 mph /  20.8 km/h 24.1 mph /  38.8 km/h 71 % 0.0 in /  0 mm
16:22 22.3 °F /  -5.4 °C 17.2 °F /  -8.2 °C 1012.8 in /  34293.4 hPa West 11.3 mph /  18.2 km/h 20.9 mph /  33.6 km/h 73 % 0.0 in /  0 mm
16:27 22.3 °F /  -5.4 °C 17.2 °F /  -8.2 °C 1012.8 in /  34293.4 hPa West 9.7 mph /  15.6 km/h 20.9 mph /  33.6 km/h 73 % 0.0 in /  0 mm
16:32 22.3 °F /  -5.4 °C 17.4 °F /  -8.1 °C 1012.8 in /  34293.4 hPa WSW 9.7 mph /  15.6 km/h 20.9 mph /  33.6 km/h 74 % 0.0 in /  0 mm
16:37 22.6 °F /  -5.2 °C 17.5 °F /  -8.1 °C 1012.8 in /  34293.4 hPa SW 9.7 mph /  15.6 km/h 20.9 mph /  33.6 km/h 73 % 0.0 in /  0 mm
16:42 22.6 °F /  -5.2 °C 17.3 °F /  -8.2 °C 1012.8 in /  34293.4 hPa SW 12.9 mph /  20.8 km/h 20.9 mph /  33.6 km/h 72 % 0.0 in /  0 mm
16:47 22.6 °F /  -5.2 °C 17.3 °F /  -8.2 °C 1012.8 in /  34293.4 hPa West 8.0 mph /  12.9 km/h 22.5 mph /  36.2 km/h 72 % 0.0 in /  0 mm
16:52 22.5 °F /  -5.3 °C 17.0 °F /  -8.3 °C 1012.4 in /  34279.9 hPa WSW 9.7 mph /  15.6 km/h 22.5 mph /  36.2 km/h 71 % 0.0 in /  0 mm
16:57 22.4 °F /  -5.3 °C 16.9 °F /  -8.4 °C 1012.8 in /  34293.4 hPa WSW 17.7 mph /  28.5 km/h 27.4 mph /  44.1 km/h 71 % 0.0 in /  0 mm
17:02 22.2 °F /  -5.4 °C 16.7 °F /  -8.5 °C 1012.8 in /  34293.4 hPa WSW 16.1 mph /  25.9 km/h 29.0 mph /  46.7 km/h 71 % 0.0 in /  0 mm
17:07 22.1 °F /  -5.5 °C 16.6 °F /  -8.6 °C 1012.8 in /  34293.4 hPa SW 11.3 mph /  18.2 km/h 29.0 mph /  46.7 km/h 71 % 0.0 in /  0 mm
17:12 21.8 °F /  -5.7 °C 17.0 °F /  -8.3 °C 1013.1 in /  34303.6 hPa West 20.9 mph /  33.6 km/h 32.2 mph /  51.8 km/h 74 % 0.0 in /  0 mm
17:17 21.2 °F /  -6 °C 17.0 °F /  -8.3 °C 1012.8 in /  34293.4 hPa West 19.3 mph /  31.1 km/h 32.2 mph /  51.8 km/h 77 % 0.0 in /  0 mm
17:22 20.6 °F /  -6.3 °C 17.2 °F /  -8.2 °C 1012.8 in /  34293.4 hPa West 4.8 mph /  7.7 km/h 32.2 mph /  51.8 km/h 81 % 0.0 in /  0 mm
17:32 20.2 °F /  -6.6 °C 17.6 °F /  -8 °C 1012.8 in /  34293.4 hPa West 9.7 mph /  15.6 km/h 20.9 mph /  33.6 km/h 85 % 0.0 in /  0 mm
17:42 20.7 °F /  -6.3 °C 17.5 °F /  -8.1 °C 1012.8 in /  34293.4 hPa West 4.8 mph /  7.7 km/h 22.5 mph /  36.2 km/h 82 % 0.0 in /  0 mm
17:47 20.6 °F /  -6.3 °C 17.2 °F /  -8.2 °C 1012.8 in /  34293.4 hPa SW 9.7 mph /  15.6 km/h 22.5 mph /  36.2 km/h 81 % 0.0 in /  0 mm
17:52 20.4 °F /  -6.4 °C 17.0 °F /  -8.3 °C 1012.8 in /  34293.4 hPa West 8.0 mph /  12.9 km/h 20.9 mph /  33.6 km/h 81 % 0.0 in /  0 mm
17:57 20.2 °F /  -6.6 °C 17.0 °F /  -8.3 °C 1012.8 in /  34293.4 hPa WSW 6.4 mph /  10.3 km/h 20.9 mph /  33.6 km/h 82 % 0.0 in /  0 mm
18:02 20.1 °F /  -6.6 °C 16.7 °F /  -8.5 °C 1013.1 in /  34303.6 hPa WSW 3.2 mph /  5.1 km/h 20.9 mph /  33.6 km/h 81 % 0.0 in /  0 mm
18:07 19.9 °F /  -6.7 °C 15.9 °F /  -8.9 °C 1013.1 in /  34303.6 hPa West 4.8 mph /  7.7 km/h 20.9 mph /  33.6 km/h 78 % 0.0 in /  0 mm
18:12 19.8 °F /  -6.8 °C 15.7 °F /  -9.1 °C 1013.1 in /  34303.6 hPa WSW 11.3 mph /  18.2 km/h 19.3 mph /  31.1 km/h 77 % 0.0 in /  0 mm
18:17 19.7 °F /  -6.8 °C 15.8 °F /  -9 °C 1013.1 in /  34303.6 hPa SW 9.7 mph /  15.6 km/h 19.3 mph /  31.1 km/h 78 % 0.0 in /  0 mm
18:22 19.4 °F /  -7 °C 15.7 °F /  -9.1 °C 1013.4 in /  34313.7 hPa SW 8.0 mph /  12.9 km/h 19.3 mph /  31.1 km/h 79 % 0.0 in /  0 mm
18:32 19.0 °F /  -7.2 °C 16.0 °F /  -8.9 °C 1013.4 in /  34313.7 hPa West 6.4 mph /  10.3 km/h 22.5 mph /  36.2 km/h 83 % 0.0 in /  0 mm
18:37 18.8 °F /  -7.3 °C 16.2 °F /  -8.8 °C 1013.8 in /  34327.3 hPa WNW 6.4 mph /  10.3 km/h 20.9 mph /  33.6 km/h 85 % 0.0 in /  0 mm
18:42 18.6 °F /  -7.4 °C 16.2 °F /  -8.8 °C 1013.8 in /  34327.3 hPa WSW 8.0 mph /  12.9 km/h 20.9 mph /  33.6 km/h 86 % 0.0 in /  0 mm
18:47 18.3 °F /  -7.6 °C 16.1 °F /  -8.8 °C 1013.8 in /  34327.3 hPa WSW 12.9 mph /  20.8 km/h 16.1 mph /  25.9 km/h 87 % 0.0 in /  0 mm
18:52 18.1 °F /  -7.7 °C 16.1 °F /  -8.8 °C 1013.8 in /  34327.3 hPa West 12.9 mph /  20.8 km/h 20.9 mph /  33.6 km/h 88 % 0.3 in /  7.62 mm
18:57 17.9 °F /  -7.8 °C 16.1 °F /  -8.8 °C 1013.8 in /  34327.3 hPa WNW 4.8 mph /  7.7 km/h 20.9 mph /  33.6 km/h 89 % 0.3 in /  7.62 mm
19:02 17.8 °F /  -7.9 °C 16.1 °F /  -8.8 °C 1013.8 in /  34327.3 hPa West 8.0 mph /  12.9 km/h 19.3 mph /  31.1 km/h 90 % 0.3 in /  7.62 mm
19:12 17.7 °F /  -7.9 °C 16.2 °F /  -8.8 °C 1013.4 in /  34313.7 hPa West 9.7 mph /  15.6 km/h 16.1 mph /  25.9 km/h 91 % 0.5 in /  12.7 mm
19:17 17.7 °F /  -7.9 °C 16.4 °F /  -8.7 °C 1013.4 in /  34313.7 hPa WNW 9.7 mph /  15.6 km/h 17.7 mph /  28.5 km/h 92 % 0.5 in /  12.7 mm
19:22 17.7 °F /  -7.9 °C 16.4 °F /  -8.7 °C 1013.4 in /  34313.7 hPa WNW 1.6 mph /  2.6 km/h 17.7 mph /  28.5 km/h 92 % 0.8 in /  20.32 mm
19:27 17.7 °F /  -7.9 °C 16.6 °F /  -8.6 °C 1013.4 in /  34313.7 hPa NW 6.4 mph /  10.3 km/h 17.7 mph /  28.5 km/h 93 % 0.8 in /  20.32 mm
19:32 17.8 °F /  -7.9 °C 16.7 °F /  -8.5 °C 1013.4 in /  34313.7 hPa WNW 3.2 mph /  5.1 km/h 16.1 mph /  25.9 km/h 93 % 0.8 in /  20.32 mm
19:37 17.8 °F /  -7.9 °C 16.7 °F /  -8.5 °C 1013.4 in /  34313.7 hPa NW 1.6 mph /  2.6 km/h 11.3 mph /  18.2 km/h 93 % 0.8 in /  20.32 mm
19:42 17.9 °F /  -7.8 °C 16.8 °F /  -8.4 °C 1013.8 in /  34327.3 hPa Calm   6.4 mph /  10.3 km/h 93 % 0.8 in /  20.32 mm
19:47 17.9 °F /  -7.8 °C 16.8 °F /  -8.4 °C 1013.8 in /  34327.3 hPa WNW 4.8 mph /  7.7 km/h 4.8 mph /  7.7 km/h 93 % 0.5 in /  12.7 mm
19:52 18.0 °F /  -7.8 °C 16.9 °F /  -8.4 °C 1013.8 in /  34327.3 hPa WSW 3.2 mph /  5.1 km/h 4.8 mph /  7.7 km/h 93 % 0.5 in /  12.7 mm
19:57 18.1 °F /  -7.7 °C 16.8 °F /  -8.4 °C 1013.8 in /  34327.3 hPa West 6.4 mph /  10.3 km/h 6.4 mph /  10.3 km/h 92 % 0.5 in /  12.7 mm
20:02 18.3 °F /  -7.6 °C 17.0 °F /  -8.3 °C 1013.8 in /  34327.3 hPa SW 4.8 mph /  7.7 km/h 8.0 mph /  12.9 km/h 92 % 0.5 in /  12.7 mm
20:07 18.4 °F /  -7.6 °C 16.9 °F /  -8.4 °C 1013.8 in /  34327.3 hPa SW 1.6 mph /  2.6 km/h 9.7 mph /  15.6 km/h 91 % 0.5 in /  12.7 mm
20:17 18.4 °F /  -7.6 °C 16.9 °F /  -8.4 °C 1014.1 in /  34337.4 hPa SW 1.6 mph /  2.6 km/h 9.7 mph /  15.6 km/h 91 % 0.0 in /  0 mm
20:22 18.4 °F /  -7.6 °C 16.7 °F /  -8.5 °C 1014.1 in /  34337.4 hPa SW 4.8 mph /  7.7 km/h 6.4 mph /  10.3 km/h 90 % 0.0 in /  0 mm
20:27 18.3 °F /  -7.6 °C 16.8 °F /  -8.4 °C 1014.1 in /  34337.4 hPa WSW 4.8 mph /  7.7 km/h 11.3 mph /  18.2 km/h 91 % 0.0 in /  0 mm
20:32 18.2 °F /  -7.7 °C 16.7 °F /  -8.5 °C 1014.1 in /  34337.4 hPa West 4.8 mph /  7.7 km/h 11.3 mph /  18.2 km/h 91 % 0.0 in /  0 mm
20:42 18.1 °F /  -7.7 °C 16.6 °F /  -8.6 °C 1014.4 in /  34347.6 hPa West 4.8 mph /  7.7 km/h 11.3 mph /  18.2 km/h 91 % 0.0 in /  0 mm
20:47 18.2 °F /  -7.7 °C 16.9 °F /  -8.4 °C 1014.4 in /  34347.6 hPa WSW 1.6 mph /  2.6 km/h 8.0 mph /  12.9 km/h 92 % 0.0 in /  0 mm
20:52 18.3 °F /  -7.6 °C 16.8 °F /  -8.4 °C 1014.4 in /  34347.6 hPa Calm   8.0 mph /  12.9 km/h 91 % 0.0 in /  0 mm
20:57 18.2 °F /  -7.7 °C 16.7 °F /  -8.5 °C 1014.4 in /  34347.6 hPa SSW 1.6 mph /  2.6 km/h 8.0 mph /  12.9 km/h 91 % 0.0 in /  0 mm
21:02 18.2 °F /  -7.7 °C 16.7 °F /  -8.5 °C 1014.8 in /  34361.1 hPa Calm   8.0 mph /  12.9 km/h 91 % 0.0 in /  0 mm
21:07 18.1 °F /  -7.7 °C 16.8 °F /  -8.4 °C 1014.4 in /  34347.6 hPa Calm   8.0 mph /  12.9 km/h 92 % 0.0 in /  0 mm
21:12 18.1 °F /  -7.7 °C 16.8 °F /  -8.4 °C 1014.8 in /  34361.1 hPa SW 6.4 mph /  10.3 km/h 8.0 mph /  12.9 km/h 92 % 0.0 in /  0 mm
21:17 18.1 °F /  -7.7 °C 16.8 °F /  -8.4 °C 1014.8 in /  34361.1 hPa SW 3.2 mph /  5.1 km/h 6.4 mph /  10.3 km/h 92 % 0.0 in /  0 mm
21:27 18.1 °F /  -7.7 °C 16.8 °F /  -8.4 °C 1014.8 in /  34361.1 hPa SW 1.6 mph /  2.6 km/h 6.4 mph /  10.3 km/h 92 % 0.0 in /  0 mm
21:32 18.1 °F /  -7.7 °C 16.8 °F /  -8.4 °C 1015.1 in /  34371.3 hPa Calm   3.2 mph /  5.1 km/h 92 % 0.0 in /  0 mm
21:42 18.1 °F /  -7.7 °C 16.9 °F /  -8.4 °C 1015.1 in /  34371.3 hPa SSW 3.2 mph /  5.1 km/h 4.8 mph /  7.7 km/h 93 % 0.0 in /  0 mm
21:47 18.0 °F /  -7.8 °C 16.9 °F /  -8.4 °C 1015.1 in /  34371.3 hPa SSW 1.6 mph /  2.6 km/h 4.8 mph /  7.7 km/h 93 % 0.0 in /  0 mm
21:52 17.9 °F /  -7.8 °C 16.9 °F /  -8.4 °C 1015.1 in /  34371.3 hPa SW 3.2 mph /  5.1 km/h 4.8 mph /  7.7 km/h 94 % 0.0 in /  0 mm
21:57 17.9 °F /  -7.8 °C 16.9 °F /  -8.4 °C 1015.5 in /  34384.8 hPa SW 3.2 mph /  5.1 km/h 4.8 mph /  7.7 km/h 94 % 0.0 in /  0 mm
22:02 17.9 °F /  -7.8 °C 16.9 °F /  -8.4 °C 1015.5 in /  34384.8 hPa SSW 1.6 mph /  2.6 km/h 4.8 mph /  7.7 km/h 94 % 0.0 in /  0 mm
22:12 17.8 °F /  -7.9 °C 16.8 °F /  -8.4 °C 1015.5 in /  34384.8 hPa Calm   3.2 mph /  5.1 km/h 94 % 0.0 in /  0 mm
22:17 17.7 °F /  -7.9 °C 16.7 °F /  -8.5 °C 1015.8 in /  34395 hPa Calm   3.2 mph /  5.1 km/h 94 % 0.0 in /  0 mm
22:27 17.6 °F /  -8 °C 16.6 °F /  -8.6 °C 1015.8 in /  34395 hPa Calm   3.2 mph /  5.1 km/h 94 % 0.0 in /  0 mm
22:32 17.6 °F /  -8 °C 16.8 °F /  -8.4 °C 1015.8 in /  34395 hPa Calm   4.8 mph /  7.7 km/h 95 % 0.0 in /  0 mm
22:42 17.5 °F /  -8.1 °C 16.7 °F /  -8.5 °C 1015.8 in /  34395 hPa SSW 3.2 mph /  5.1 km/h 3.2 mph /  5.1 km/h 95 % 0.0 in /  0 mm
22:47 17.5 °F /  -8.1 °C 16.7 °F /  -8.5 °C 1015.8 in /  34395 hPa SSW 1.6 mph /  2.6 km/h 8.0 mph /  12.9 km/h 95 % 0.0 in /  0 mm
22:52 17.5 °F /  -8.1 °C 16.7 °F /  -8.5 °C 1015.8 in /  34395 hPa SW 4.8 mph /  7.7 km/h 8.0 mph /  12.9 km/h 95 % 0.0 in /  0 mm
22:57 17.4 °F /  -8.1 °C 16.6 °F /  -8.6 °C 1015.8 in /  34395 hPa SW 8.0 mph /  12.9 km/h 8.0 mph /  12.9 km/h 95 % 0.0 in /  0 mm
23:02 17.3 °F /  -8.2 °C 16.5 °F /  -8.6 °C 1015.8 in /  34395 hPa SW 3.2 mph /  5.1 km/h 8.0 mph /  12.9 km/h 95 % 0.0 in /  0 mm
23:12 17.3 °F /  -8.2 °C 16.5 °F /  -8.6 °C 1015.8 in /  34395 hPa SW 6.4 mph /  10.3 km/h 9.7 mph /  15.6 km/h 95 % 0.0 in /  0 mm
23:17 17.3 °F /  -8.2 °C 16.5 °F /  -8.6 °C 1015.8 in /  34395 hPa WSW 6.4 mph /  10.3 km/h 11.3 mph /  18.2 km/h 95 % 0.0 in /  0 mm
23:22 17.3 °F /  -8.2 °C 16.5 °F /  -8.6 °C 1015.8 in /  34395 hPa SW 6.4 mph /  10.3 km/h 11.3 mph /  18.2 km/h 95 % 0.0 in /  0 mm
23:27 17.3 °F /  -8.2 °C 16.5 °F /  -8.6 °C 1015.8 in /  34395 hPa SSW 3.2 mph /  5.1 km/h 11.3 mph /  18.2 km/h 95 % 0.0 in /  0 mm
23:32 17.3 °F /  -8.2 °C 16.5 °F /  -8.6 °C 1015.8 in /  34395 hPa SSW 3.2 mph /  5.1 km/h 8.0 mph /  12.9 km/h 95 % 0.0 in /  0 mm
23:42 17.1 °F /  -8.3 °C 16.3 °F /  -8.7 °C 1015.8 in /  34395 hPa SW 9.7 mph /  15.6 km/h 9.7 mph /  15.6 km/h 95 % 0.0 in /  0 mm
23:47 17.1 °F /  -8.3 °C 16.5 °F /  -8.6 °C 1016.1 in /  34405.1 hPa SSW 4.8 mph /  7.7 km/h 9.7 mph /  15.6 km/h 96 % 0.0 in /  0 mm
23:52 17.1 °F /  -8.3 °C 16.3 °F /  -8.7 °C 1016.1 in /  34405.1 hPa SSE 3.2 mph /  5.1 km/h 9.7 mph /  15.6 km/h 95 % 0.0 in /  0 mm
23:57 16.8 °F /  -8.4 °C 16.0 °F /  -8.9 °C 1016.1 in /  34405.1 hPa SW 3.2 mph /  5.1 km/h 9.7 mph /  15.6 km/h 95 % 0.0 in /  0 mm
Meteo18
Compliments of Weather Underground - 4 mb

Script developed by  Jim McMurry - jmcmurry@mwt.net Adapted for the template by  Wim van der Kuil - Leuven-Template.eu

You find our weather info also at:

European Weather Network

Weather Underground

Equipment we use:

Weather-station
Davis Vue

Weather-program
Meteobridge

Weather-server
Raspberry PI 2 B+

Provider
1 and 1

Davis Vue

Meteobridge

Raspberry PI 2 B+

1 and 1